Time;durP1;ratioP1;P1;durP2;ratioP2;P2;SDS_P1;SDS_P2;PMS_P1;PMS_P2;Temp;Humidity;BMP_temperature;BMP_pressure;BME280_temperature;BME280_humidity;BME280_pressure;Samples;Min_cycle;Max_cycle;Signal;HPM_P1;HPM_P2
2023/09/02 00:00:57;;;;;;;;;;;21.20;62.30;;;;;;5073210;28;21416;-55
2023/09/02 00:03:23;;;;;;;;;;;21.20;62.20;;;;;;5072921;28;19999;-56
2023/09/02 00:05:48;;;;;;;;;;;21.20;62.50;;;;;;5091716;28;19973;-55
2023/09/02 00:08:14;;;;;;;;;;;21.10;62.10;;;;;;5093798;28;19916;-55
2023/09/02 00:10:39;;;;;;;;;;;21.20;62.40;;;;;;5055789;28;20369;-56
2023/09/02 00:13:05;;;;;;;;;;;21.20;62.40;;;;;;5053454;28;19962;-55
2023/09/02 00:15:30;;;;;;;;;;;21.10;62.40;;;;;;5053544;28;19989;-55
2023/09/02 00:17:56;;;;;;;;;;;21.20;62.60;;;;;;5091488;28;19915;-55
2023/09/02 00:20:21;;;;;;;;;;;21.20;62.60;;;;;;5093700;28;20007;-54
2023/09/02 00:22:46;;;;;;;;;;;21.20;62.60;;;;;;5093580;28;20332;-55
2023/09/02 00:25:12;;;;;;;;;;;21.20;62.60;;;;;;5083693;28;19908;-55
2023/09/02 00:27:38;;;;;;;;;;;21.20;62.60;;;;;;5073358;28;19935;-55
2023/09/02 00:30:03;;;;;;;;;;;21.10;62.30;;;;;;5071970;28;19915;-55
2023/09/02 00:32:29;;;;;;;;;;;21.10;62.70;;;;;;5073211;28;20295;-56
2023/09/02 00:34:54;;;;;;;;;;;21.10;62.70;;;;;;5073101;28;19920;-56
2023/09/02 00:37:20;;;;;;;;;;;21.20;62.70;;;;;;5073095;28;19917;-55
2023/09/02 00:39:45;;;;;;;;;;;21.10;62.90;;;;;;5071588;28;19908;-57
2023/09/02 00:42:12;;;;;;;;;;;21.10;62.70;;;;;;5081444;28;20312;-56
2023/09/02 00:44:37;;;;;;;;;;;21.10;62.80;;;;;;5092139;28;19912;-56
2023/09/02 00:47:03;;;;;;;;;;;21.10;62.70;;;;;;5093417;28;19969;-56
2023/09/02 00:49:28;;;;;;;;;;;21.10;62.80;;;;;;5091596;28;20051;-56
2023/09/02 00:51:54;;;;;;;;;;;21.10;62.80;;;;;;5093331;28;20003;-55
2023/09/02 00:54:19;;;;;;;;;;;21.10;62.80;;;;;;5091198;28;19957;-55
2023/09/02 00:56:45;;;;;;;;;;;21.10;62.90;;;;;;5071569;28;19966;-55
2023/09/02 00:59:10;;;;;;;;;;;21.10;62.80;;;;;;5072876;28;20277;-56
2023/09/02 01:01:36;;;;;;;;;;;21.10;62.60;;;;;;5074567;28;19943;-55
2023/09/02 01:04:02;;;;;;;;;;;21.10;62.80;;;;;;5090923;28;19919;-55
2023/09/02 01:06:28;;;;;;;;;;;21.10;62.70;;;;;;5075071;28;19949;-55
2023/09/02 01:08:53;;;;;;;;;;;21.10;62.80;;;;;;5071897;28;20045;-55
2023/09/02 01:11:19;;;;;;;;;;;21.10;62.60;;;;;;5054830;28;19915;-55
2023/09/02 01:13:44;;;;;;;;;;;21.10;62.70;;;;;;5073140;28;20467;-56
2023/09/02 01:16:10;;;;;;;;;;;21.10;62.90;;;;;;5076741;28;19920;-55
2023/09/02 01:18:36;;;;;;;;;;;21.00;62.70;;;;;;5076857;28;19908;-55
2023/09/02 01:21:02;;;;;;;;;;;21.00;62.70;;;;;;5091202;28;19909;-55
2023/09/02 01:23:32;;;;;;;;;;;21.10;62.30;;;;;;5076828;28;19959;-55
2023/09/02 01:26:04;;;;;;;;;;;21.10;62.40;;;;;;5077469;28;19951;-55
2023/09/02 01:28:31;;;;;;;;;;;21.00;62.30;;;;;;5075498;28;19958;-55
2023/09/02 01:30:56;;;;;;;;;;;21.00;62.00;;;;;;5075950;28;19909;-55
2023/09/02 01:33:22;;;;;;;;;;;21.10;62.20;;;;;;5075433;28;20426;-55
2023/09/02 01:35:48;;;;;;;;;;;21.00;62.20;;;;;;5058582;28;20035;-55
2023/09/02 01:38:14;;;;;;;;;;;21.00;62.20;;;;;;5076389;28;20007;-55
2023/09/02 01:40:40;;;;;;;;;;;21.00;62.50;;;;;;5087797;28;20284;-55
2023/09/02 01:43:05;;;;;;;;;;;21.00;62.40;;;;;;5096687;28;19962;-55
2023/09/02 01:45:33;;;;;;;;;;;21.00;62.70;;;;;;5096630;28;19908;-55
2023/09/02 01:47:59;;;;;;;;;;;21.00;62.80;;;;;;5096512;28;20353;-55
2023/09/02 01:50:25;;;;;;;;;;;21.00;62.90;;;;;;5083468;28;19925;-54
2023/09/02 01:52:50;;;;;;;;;;;21.00;62.70;;;;;;5074997;28;19991;-54
2023/09/02 01:55:16;;;;;;;;;;;21.00;62.90;;;;;;5081600;28;19951;-56
2023/09/02 01:57:41;;;;;;;;;;;21.00;62.90;;;;;;5096339;28;19915;-55
2023/09/02 02:00:08;;;;;;;;;;;21.00;63.00;;;;;;5095214;28;19908;-55
2023/09/02 02:02:35;;;;;;;;;;;21.00;63.10;;;;;;5094773;28;19912;-55
2023/09/02 02:05:02;;;;;;;;;;;21.00;63.00;;;;;;5093966;28;20327;-55
2023/09/02 02:07:28;;;;;;;;;;;21.00;63.10;;;;;;5095057;28;19908;-55
2023/09/02 02:09:56;;;;;;;;;;;21.00;63.10;;;;;;5092688;28;19921;-55
2023/09/02 02:12:21;;;;;;;;;;;20.90;62.60;;;;;;5094984;28;19909;-55
2023/09/02 02:14:47;;;;;;;;;;;20.90;62.60;;;;;;5095997;28;19908;-55
2023/09/02 02:17:12;;;;;;;;;;;20.90;62.90;;;;;;5095981;28;20391;-55
2023/09/02 02:19:38;;;;;;;;;;;20.90;63.00;;;;;;5095035;28;19908;-55
2023/09/02 02:22:03;;;;;;;;;;;20.90;63.00;;;;;;5094913;28;19908;-55
2023/09/02 02:24:29;;;;;;;;;;;20.90;63.00;;;;;;5093932;28;19908;-55
2023/09/02 02:26:55;;;;;;;;;;;20.90;63.00;;;;;;5089981;28;20050;-55
2023/09/02 02:29:20;;;;;;;;;;;20.90;63.00;;;;;;5095872;28;19914;-55
2023/09/02 02:31:45;;;;;;;;;;;20.90;63.10;;;;;;5092042;28;19927;-55
2023/09/02 02:34:11;;;;;;;;;;;20.90;63.20;;;;;;5075464;28;19912;-55
2023/09/02 02:36:36;;;;;;;;;;;20.90;62.90;;;;;;5075368;28;20360;-55
2023/09/02 02:39:05;;;;;;;;;;;20.90;62.60;;;;;;5075429;28;19916;-55
2023/09/02 02:41:30;;;;;;;;;;;20.90;62.50;;;;;;5085442;28;20224;-55
2023/09/02 02:43:56;;;;;;;;;;;20.90;62.70;;;;;;5095531;28;19999;-55
2023/09/02 02:46:21;;;;;;;;;;;20.90;62.50;;;;;;5095473;28;20284;-55
2023/09/02 02:48:47;;;;;;;;;;;20.90;62.60;;;;;;5095396;28;19927;-55
2023/09/02 02:51:12;;;;;;;;;;;20.90;62.70;;;;;;5087414;28;20376;-56
2023/09/02 02:53:38;;;;;;;;;;;20.90;62.50;;;;;;5095413;28;20378;-55
2023/09/02 02:56:03;;;;;;;;;;;20.90;62.80;;;;;;5084543;28;19916;-55
2023/09/02 02:58:29;;;;;;;;;;;20.90;63.10;;;;;;5095226;28;19909;-55
2023/09/02 03:01:03;;;;;;;;;;;20.90;62.80;;;;;;5092256;28;20468;-57
2023/09/02 03:03:28;;;;;;;;;;;20.80;62.80;;;;;;5095197;28;19915;-55
2023/09/02 03:05:54;;;;;;;;;;;20.80;63.60;;;;;;5093712;28;19908;-55
2023/09/02 03:08:19;;;;;;;;;;;20.80;62.90;;;;;;5095038;28;19914;-56
2023/09/02 03:10:45;;;;;;;;;;;20.80;62.80;;;;;;5092424;28;20003;-55
2023/09/02 03:13:10;;;;;;;;;;;20.80;62.80;;;;;;5094779;28;19953;-55
2023/09/02 03:15:36;;;;;;;;;;;20.80;62.90;;;;;;5094777;28;20080;-55
2023/09/02 03:18:01;;;;;;;;;;;20.80;62.90;;;;;;5094868;28;20049;-55
2023/09/02 03:20:27;;;;;;;;;;;20.80;63.00;;;;;;5094768;28;19908;-55
2023/09/02 03:22:52;;;;;;;;;;;20.80;62.80;;;;;;5092581;28;20364;-55
2023/09/02 03:25:17;;;;;;;;;;;20.80;62.60;;;;;;5088324;28;19984;-55
2023/09/02 03:27:43;;;;;;;;;;;20.80;62.70;;;;;;5094529;28;20356;-55
2023/09/02 03:30:08;;;;;;;;;;;20.80;62.60;;;;;;5094635;28;20364;-56
2023/09/02 03:32:34;;;;;;;;;;;20.80;62.60;;;;;;5092070;28;20373;-55
2023/09/02 03:35:00;;;;;;;;;;;20.80;62.70;;;;;;5093269;28;20349;-55
2023/09/02 03:37:26;;;;;;;;;;;20.80;62.80;;;;;;5094208;28;19942;-55
2023/09/02 03:39:53;;;;;;;;;;;20.80;62.90;;;;;;5094462;28;19998;-55
2023/09/02 03:42:18;;;;;;;;;;;20.80;62.70;;;;;;5092117;28;20000;-55
2023/09/02 03:44:44;;;;;;;;;;;20.80;62.70;;;;;;5094275;28;20000;-55
2023/09/02 03:47:09;;;;;;;;;;;20.80;62.60;;;;;;5094214;28;19909;-56
2023/09/02 03:49:34;;;;;;;;;;;20.70;62.70;;;;;;5094102;28;19924;-56
2023/09/02 03:52:00;;;;;;;;;;;20.70;62.60;;;;;;5074743;28;20368;-55
2023/09/02 03:54:25;;;;;;;;;;;20.70;62.90;;;;;;5093451;28;20292;-55
2023/09/02 03:56:51;;;;;;;;;;;20.70;62.90;;;;;;5083911;28;20276;-55
2023/09/02 03:59:16;;;;;;;;;;;20.70;62.90;;;;;;5093889;28;20003;-55
2023/09/02 04:01:42;;;;;;;;;;;20.70;62.80;;;;;;5091490;28;19912;-56
2023/09/02 04:04:07;;;;;;;;;;;20.70;62.90;;;;;;5094032;28;20005;-55
2023/09/02 04:06:32;;;;;;;;;;;20.70;62.90;;;;;;5080839;28;20364;-55
2023/09/02 04:08:58;;;;;;;;;;;20.70;62.80;;;;;;5073921;28;20272;-55
2023/09/02 04:11:23;;;;;;;;;;;20.70;62.70;;;;;;5078817;28;19948;-55
2023/09/02 04:13:49;;;;;;;;;;;20.70;62.80;;;;;;5093813;28;19908;-55
2023/09/02 04:16:14;;;;;;;;;;;20.70;62.80;;;;;;5089845;28;19939;-56
2023/09/02 04:18:40;;;;;;;;;;;20.70;62.80;;;;;;5093713;28;19953;-55
2023/09/02 04:21:08;;;;;;;;;;;20.70;62.80;;;;;;5092477;28;19912;-56
2023/09/02 04:23:34;;;;;;;;;;;20.70;62.70;;;;;;5093692;28;19908;-55
2023/09/02 04:26:00;;;;;;;;;;;20.70;62.80;;;;;;5078943;28;19979;-55
2023/09/02 04:28:25;;;;;;;;;;;20.70;62.80;;;;;;5093763;28;19947;-56
2023/09/02 04:30:53;;;;;;;;;;;20.70;62.80;;;;;;5090432;28;19957;-55
2023/09/02 04:33:18;;;;;;;;;;;20.70;62.80;;;;;;5092554;28;19913;-55
2023/09/02 04:35:45;;;;;;;;;;;20.70;62.80;;;;;;5089967;28;19923;-55
2023/09/02 04:38:10;;;;;;;;;;;20.60;62.70;;;;;;5093493;28;19915;-55
2023/09/02 04:40:39;;;;;;;;;;;20.60;62.70;;;;;;5093396;28;19908;-55
2023/09/02 04:43:05;;;;;;;;;;;20.60;62.70;;;;;;5091054;28;19912;-56
2023/09/02 04:45:33;;;;;;;;;;;20.60;62.70;;;;;;5093337;28;20317;-55
2023/09/02 04:47:59;;;;;;;;;;;20.60;62.70;;;;;;5093293;28;19912;-57
2023/09/02 04:50:25;;;;;;;;;;;20.60;62.70;;;;;;5092639;28;20308;-55
2023/09/02 04:52:50;;;;;;;;;;;20.60;62.70;;;;;;5090509;28;19916;-56
2023/09/02 04:55:16;;;;;;;;;;;20.60;62.50;;;;;;5084752;28;20343;-55
2023/09/02 04:57:41;;;;;;;;;;;20.60;62.60;;;;;;5082783;28;19916;-56
2023/09/02 05:00:07;;;;;;;;;;;20.60;63.00;;;;;;5093114;28;19915;-55
2023/09/02 05:02:33;;;;;;;;;;;20.60;63.00;;;;;;5091917;28;19919;-56
2023/09/02 05:04:58;;;;;;;;;;;20.60;63.00;;;;;;5093093;28;19908;-55
2023/09/02 05:07:23;;;;;;;;;;;20.60;63.00;;;;;;5090494;28;20007;-55
2023/09/02 05:09:49;;;;;;;;;;;20.60;63.00;;;;;;5089078;28;20295;-55
2023/09/02 05:12:15;;;;;;;;;;;20.60;62.80;;;;;;5091136;28;19917;-55
2023/09/02 05:14:40;;;;;;;;;;;20.60;63.10;;;;;;5090719;28;19974;-55
2023/09/02 05:17:06;;;;;;;;;;;20.50;63.10;;;;;;5080287;28;19916;-56
2023/09/02 05:19:31;;;;;;;;;;;20.60;63.20;;;;;;5076487;28;19912;-57
2023/09/02 05:21:57;;;;;;;;;;;20.60;63.30;;;;;;5093041;28;19908;-55
2023/09/02 05:24:23;;;;;;;;;;;20.50;63.10;;;;;;5091898;28;19908;-55
2023/09/02 05:26:48;;;;;;;;;;;20.60;63.20;;;;;;5088585;28;19916;-55
2023/09/02 05:29:14;;;;;;;;;;;20.50;63.20;;;;;;5087101;28;19912;-55
2023/09/02 05:31:39;;;;;;;;;;;20.50;63.20;;;;;;5088952;28;19957;-55
2023/09/02 05:34:05;;;;;;;;;;;20.50;63.20;;;;;;5089095;28;19916;-55
2023/09/02 05:36:30;;;;;;;;;;;20.50;63.20;;;;;;5086596;28;19942;-56
2023/09/02 05:38:55;;;;;;;;;;;20.50;63.30;;;;;;5092709;28;19961;-55
2023/09/02 05:41:21;;;;;;;;;;;20.50;63.30;;;;;;5092646;28;19908;-55
2023/09/02 05:43:46;;;;;;;;;;;20.50;63.30;;;;;;5090559;28;19985;-56
2023/09/02 05:46:12;;;;;;;;;;;20.50;63.40;;;;;;5092726;28;19931;-55
2023/09/02 05:48:37;;;;;;;;;;;20.50;63.50;;;;;;5092922;28;19994;-55
2023/09/02 05:51:03;;;;;;;;;;;20.50;63.70;;;;;;5092526;28;20390;-55
2023/09/02 05:53:29;;;;;;;;;;;20.50;63.80;;;;;;5079580;28;20398;-55
2023/09/02 05:55:55;;;;;;;;;;;20.50;63.70;;;;;;5072335;28;20279;-56
2023/09/02 05:58:22;;;;;;;;;;;20.50;63.70;;;;;;5079812;28;20012;-56
2023/09/02 06:00:48;;;;;;;;;;;20.50;63.80;;;;;;5093042;28;19947;-56
2023/09/02 06:03:13;;;;;;;;;;;20.50;63.80;;;;;;5096442;28;19950;-55
2023/09/02 06:05:38;;;;;;;;;;;20.50;63.70;;;;;;5091616;28;20292;-55
2023/09/02 06:08:04;;;;;;;;;;;20.50;63.70;;;;;;5094015;28;20326;-55
2023/09/02 06:10:29;;;;;;;;;;;20.50;63.70;;;;;;5096249;28;19930;-56
2023/09/02 06:12:55;;;;;;;;;;;20.50;63.70;;;;;;5094054;28;19920;-55
2023/09/02 06:15:20;;;;;;;;;;;20.50;63.80;;;;;;5096221;28;19908;-55
2023/09/02 06:17:46;;;;;;;;;;;20.40;64.00;;;;;;5095945;28;19912;-55
2023/09/02 06:20:15;;;;;;;;;;;20.40;63.80;;;;;;5096031;28;20284;-56
2023/09/02 06:22:40;;;;;;;;;;;20.40;63.70;;;;;;5093859;28;19950;-55
2023/09/02 06:25:06;;;;;;;;;;;20.50;64.00;;;;;;5087880;28;19959;-55
2023/09/02 06:27:31;;;;;;;;;;;20.50;64.20;;;;;;5075972;28;19912;-56
2023/09/02 06:29:57;;;;;;;;;;;20.40;64.10;;;;;;5092602;28;19908;-55
2023/09/02 06:32:22;;;;;;;;;;;20.40;64.30;;;;;;5095937;28;20306;-55
2023/09/02 06:34:48;;;;;;;;;;;20.40;64.40;;;;;;5092788;28;20272;-54
2023/09/02 06:37:13;;;;;;;;;;;20.50;64.40;;;;;;5075290;28;19920;-55
2023/09/02 06:39:39;;;;;;;;;;;20.40;64.60;;;;;;5075434;28;20448;-55
2023/09/02 06:42:04;;;;;;;;;;;20.40;64.70;;;;;;5075324;28;20312;-57
2023/09/02 06:44:30;;;;;;;;;;;20.40;64.60;;;;;;5084873;28;19945;-55
2023/09/02 06:46:55;;;;;;;;;;;20.40;65.00;;;;;;5095592;28;19923;-55
2023/09/02 06:49:21;;;;;;;;;;;20.40;64.90;;;;;;5095341;28;20364;-56
2023/09/02 06:51:46;;;;;;;;;;;20.40;64.90;;;;;;5095502;28;19908;-55
2023/09/02 06:54:11;;;;;;;;;;;20.40;64.90;;;;;;5091605;28;19912;-55
2023/09/02 06:56:37;;;;;;;;;;;20.40;65.30;;;;;;5075393;28;19916;-56
2023/09/02 06:59:02;;;;;;;;;;;20.40;65.20;;;;;;5080264;28;19912;-56
2023/09/02 07:01:28;;;;;;;;;;;20.40;65.80;;;;;;5095220;28;19915;-54
2023/09/02 07:03:55;;;;;;;;;;;20.40;65.70;;;;;;5092056;28;19993;-54
2023/09/02 07:06:21;;;;;;;;;;;20.40;65.40;;;;;;5095265;28;20004;-56
2023/09/02 07:08:46;;;;;;;;;;;20.40;65.80;;;;;;5095127;28;20352;-55
2023/09/02 07:11:12;;;;;;;;;;;20.40;66.90;;;;;;5094950;28;19930;-55
2023/09/02 07:13:37;;;;;;;;;;;20.40;66.90;;;;;;5092279;28;19912;-55
2023/09/02 07:16:03;;;;;;;;;;;20.40;66.90;;;;;;5094856;28;20468;-55
2023/09/02 07:18:29;;;;;;;;;;;20.40;66.80;;;;;;5094760;28;19916;-57
2023/09/02 07:20:58;;;;;;;;;;;20.40;65.90;;;;;;5093455;28;19908;-55
2023/09/02 07:23:24;;;;;;;;;;;20.40;66.40;;;;;;5094841;28;19946;-55
2023/09/02 07:25:49;;;;;;;;;;;20.40;66.90;;;;;;5078563;28;20360;-55
2023/09/02 07:28:15;;;;;;;;;;;20.40;67.00;;;;;;5079550;28;19916;-55
2023/09/02 07:30:40;;;;;;;;;;;20.40;67.30;;;;;;5074475;28;19908;-56
2023/09/02 07:33:05;;;;;;;;;;;20.40;66.90;;;;;;5074512;28;19919;-56
2023/09/02 07:35:36;;;;;;;;;;;20.40;67.30;;;;;;5079349;28;20004;-55
2023/09/02 07:38:03;;;;;;;;;;;20.40;66.90;;;;;;5092689;28;19918;-55
2023/09/02 07:40:28;;;;;;;;;;;20.40;66.90;;;;;;5094581;28;19915;-55
2023/09/02 07:42:54;;;;;;;;;;;20.40;66.90;;;;;;5091824;28;19912;-54
2023/09/02 07:45:19;;;;;;;;;;;20.40;66.90;;;;;;5093070;28;19953;-55
2023/09/02 07:47:45;;;;;;;;;;;20.40;67.10;;;;;;5094257;28;19908;-55
2023/09/02 07:50:11;;;;;;;;;;;20.40;67.00;;;;;;5094056;28;19927;-55
2023/09/02 07:52:36;;;;;;;;;;;20.40;67.10;;;;;;5092822;28;19912;-55
2023/09/02 07:55:03;;;;;;;;;;;20.40;67.40;;;;;;5087633;28;20020;-55
2023/09/02 07:57:30;;;;;;;;;;;20.40;67.60;;;;;;5074792;28;19921;-55
2023/09/02 07:59:56;;;;;;;;;;;20.40;67.30;;;;;;5094030;28;19954;-55
2023/09/02 08:02:21;;;;;;;;;;;20.50;67.50;;;;;;5094034;28;19956;-55
2023/09/02 08:04:47;;;;;;;;;;;20.50;66.70;;;;;;5091951;28;19919;-55
2023/09/02 08:07:15;;;;;;;;;;;20.50;67.10;;;;;;5089913;28;19919;-56
2023/09/02 08:09:41;;;;;;;;;;;20.50;67.00;;;;;;5091212;28;20276;-56
2023/09/02 08:12:07;;;;;;;;;;;20.50;67.10;;;;;;5093835;28;19919;-56
2023/09/02 08:14:33;;;;;;;;;;;20.50;67.10;;;;;;5091586;28;19920;-55
2023/09/02 08:16:58;;;;;;;;;;;20.50;67.90;;;;;;5093640;28;19912;-55
2023/09/02 08:19:23;;;;;;;;;;;20.50;67.20;;;;;;5091743;28;19963;-55
2023/09/02 08:21:49;;;;;;;;;;;20.50;67.20;;;;;;5093797;28;19912;-56
2023/09/02 08:24:14;;;;;;;;;;;20.50;67.10;;;;;;5088284;28;19912;-55
2023/09/02 08:26:40;;;;;;;;;;;20.50;67.00;;;;;;5073431;28;20407;-55
2023/09/02 08:29:06;;;;;;;;;;;20.50;67.00;;;;;;5071593;28;20313;-56
2023/09/02 08:31:31;;;;;;;;;;;20.50;67.00;;;;;;5080328;28;19965;-55
2023/09/02 08:33:57;;;;;;;;;;;20.60;67.10;;;;;;5093540;28;20015;-56
2023/09/02 08:36:22;;;;;;;;;;;20.60;67.00;;;;;;5093656;28;19912;-55
2023/09/02 08:38:48;;;;;;;;;;;20.60;67.10;;;;;;5093424;28;19915;-55
2023/09/02 08:41:16;;;;;;;;;;;20.60;67.10;;;;;;5090896;28;19923;-56
2023/09/02 08:43:42;;;;;;;;;;;20.60;67.10;;;;;;5091019;28;19919;-56
2023/09/02 08:46:07;;;;;;;;;;;20.60;67.00;;;;;;5092075;28;20368;-55
2023/09/02 08:48:33;;;;;;;;;;;20.60;67.00;;;;;;5093333;28;19908;-55
2023/09/02 08:50:58;;;;;;;;;;;20.60;67.10;;;;;;5091881;28;20433;-55
2023/09/02 08:53:24;;;;;;;;;;;20.70;67.00;;;;;;5090597;28;19912;-55
2023/09/02 08:55:50;;;;;;;;;;;20.70;67.10;;;;;;5079924;28;20293;-56
2023/09/02 08:58:15;;;;;;;;;;;20.70;66.70;;;;;;5072532;28;19912;-55
2023/09/02 09:00:41;;;;;;;;;;;20.70;66.80;;;;;;5090034;28;20010;-56
2023/09/02 09:03:07;;;;;;;;;;;20.70;67.20;;;;;;5093061;28;19915;-55
2023/09/02 09:05:33;;;;;;;;;;;20.60;67.10;;;;;;5091889;28;19908;-55
2023/09/02 09:07:58;;;;;;;;;;;20.60;67.30;;;;;;5093106;28;20368;-55
2023/09/02 09:10:24;;;;;;;;;;;20.70;67.20;;;;;;5089628;28;19920;-55
2023/09/02 09:12:50;;;;;;;;;;;20.80;67.30;;;;;;5091777;28;19914;-56
2023/09/02 09:15:15;;;;;;;;;;;20.80;66.60;;;;;;5090582;28;20003;-55
2023/09/02 09:17:41;;;;;;;;;;;20.90;66.50;;;;;;5093055;28;19958;-56
2023/09/02 09:20:06;;;;;;;;;;;20.90;66.50;;;;;;5091122;28;20050;-56
2023/09/02 09:22:38;;;;;;;;;;;21.00;66.10;;;;;;5092875;28;19961;-56
2023/09/02 09:25:03;;;;;;;;;;;20.90;66.00;;;;;;5086186;28;19908;-56
2023/09/02 09:27:29;;;;;;;;;;;20.90;66.10;;;;;;5072618;28;19949;-55
2023/09/02 09:29:54;;;;;;;;;;;20.90;66.30;;;;;;5082075;28;19920;-55
2023/09/02 09:32:22;;;;;;;;;;;20.90;66.30;;;;;;5092798;28;20000;-56
2023/09/02 09:34:47;;;;;;;;;;;21.00;66.10;;;;;;5093254;28;19908;-56
2023/09/02 09:37:14;;;;;;;;;;;21.00;66.40;;;;;;5096723;28;20031;-55
2023/09/02 09:39:46;;;;;;;;;;;21.10;66.20;;;;;;5095471;28;19993;-55
2023/09/02 09:42:12;;;;;;;;;;;21.10;66.10;;;;;;5096774;28;19908;-56
2023/09/02 09:44:51;;;;;;;;;;;21.00;66.00;;;;;;5094507;28;19919;-56
2023/09/02 09:47:17;;;;;;;;;;;21.00;66.10;;;;;;5095579;28;19912;-55
2023/09/02 09:49:44;;;;;;;;;;;21.00;66.10;;;;;;5096447;28;19927;-56
2023/09/02 09:52:10;;;;;;;;;;;21.00;66.00;;;;;;5095076;28;20320;-56
2023/09/02 09:54:38;;;;;;;;;;;20.90;66.10;;;;;;5093175;28;20016;-55
2023/09/02 09:57:05;;;;;;;;;;;20.90;66.30;;;;;;5094411;28;19916;-55
2023/09/02 09:59:30;;;;;;;;;;;20.90;66.00;;;;;;5091627;28;20353;-56
2023/09/02 10:01:57;;;;;;;;;;;20.90;66.00;;;;;;5096466;28;19957;-55
2023/09/02 10:04:22;;;;;;;;;;;20.80;65.90;;;;;;5096408;28;19908;-55
2023/09/02 10:06:48;;;;;;;;;;;20.90;66.10;;;;;;5093633;28;19965;-55
2023/09/02 10:09:13;;;;;;;;;;;20.80;66.10;;;;;;5096167;28;19955;-56
2023/09/02 10:11:39;;;;;;;;;;;20.90;66.50;;;;;;5096278;28;19915;-55
2023/09/02 10:14:04;;;;;;;;;;;21.00;66.60;;;;;;5093647;28;19912;-56
2023/09/02 10:16:30;;;;;;;;;;;21.10;66.50;;;;;;5094602;28;20091;-56
2023/09/02 10:18:56;;;;;;;;;;;21.20;66.30;;;;;;5095979;28;19966;-56
2023/09/02 10:21:21;;;;;;;;;;;21.30;65.90;;;;;;5096010;28;20360;-55
2023/09/02 10:23:53;;;;;;;;;;;21.30;65.80;;;;;;5090291;28;19912;-56
2023/09/02 10:26:22;;;;;;;;;;;21.50;65.50;;;;;;5073641;28;19915;-55
2023/09/02 10:28:49;;;;;;;;;;;21.50;65.20;;;;;;5076497;28;19916;-55
2023/09/02 10:31:16;;;;;;;;;;;21.50;65.20;;;;;;5095880;28;19977;-56
2023/09/02 10:33:45;;;;;;;;;;;21.50;65.20;;;;;;5094492;28;19908;-56
2023/09/02 10:36:11;;;;;;;;;;;21.40;65.20;;;;;;5094184;28;19916;-55
2023/09/02 10:38:37;;;;;;;;;;;21.30;65.30;;;;;;5094438;28;19912;-55
2023/09/02 10:41:07;;;;;;;;;;;21.40;65.60;;;;;;5095614;28;19908;-56
2023/09/02 10:43:32;;;;;;;;;;;21.40;65.50;;;;;;5095659;28;20449;-56
2023/09/02 10:45:59;;;;;;;;;;;21.40;65.60;;;;;;5092357;28;19912;-55
2023/09/02 10:48:24;;;;;;;;;;;21.40;65.80;;;;;;5093532;28;20262;-56
2023/09/02 10:50:49;;;;;;;;;;;21.40;66.00;;;;;;5095282;28;19928;-55
2023/09/02 10:53:15;;;;;;;;;;;21.40;65.90;;;;;;5095401;28;19912;-55
2023/09/02 10:56:02;;;;;;;;;;;21.30;66.00;;;;;;5081965;28;20324;-56
2023/09/02 10:58:44;;;;;;;;;;;21.30;66.00;;;;;;5055005;28;20368;-56
2023/09/02 11:01:10;;;;;;;;;;;21.50;65.30;;;;;;5089551;28;20007;-56
2023/09/02 11:03:48;;;;;;;;;;;21.60;65.00;;;;;;5095161;28;20363;-56
2023/09/02 11:06:15;;;;;;;;;;;21.70;64.30;;;;;;5093145;28;19916;-55
2023/09/02 11:08:48;;;;;;;;;;;21.70;64.20;;;;;;5074967;28;19955;-55
2023/09/02 11:11:13;;;;;;;;;;;21.70;64.10;;;;;;5074820;28;19908;-55
2023/09/02 11:13:57;;;;;;;;;;;21.70;64.10;;;;;;5074787;28;19916;-56
2023/09/02 11:16:23;;;;;;;;;;;21.80;64.20;;;;;;5090552;28;20330;-55
2023/09/02 11:18:48;;;;;;;;;;;21.80;64.30;;;;;;5094902;28;20006;-56
2023/09/02 11:21:32;;;;;;;;;;;21.70;64.10;;;;;;5094655;28;19908;-56
2023/09/02 11:24:16;;;;;;;;;;;21.70;64.30;;;;;;5090794;28;20050;-56
2023/09/02 11:26:51;;;;;;;;;;;21.70;64.50;;;;;;5073977;28;19912;-56
2023/09/02 11:29:26;;;;;;;;;;;21.80;63.50;;;;;;5074470;28;19908;-55
2023/09/02 11:31:55;;;;;;;;;;;21.80;63.30;;;;;;5091489;28;19919;-56
2023/09/02 11:34:21;;;;;;;;;;;21.80;63.20;;;;;;5093419;28;19958;-56
2023/09/02 11:36:46;;;;;;;;;;;21.90;63.30;;;;;;5094546;28;19912;-55
2023/09/02 11:39:12;;;;;;;;;;;21.90;63.20;;;;;;5089440;28;19920;-56
2023/09/02 11:41:37;;;;;;;;;;;22.00;62.80;;;;;;5074328;28;19961;-55
2023/09/02 11:44:09;;;;;;;;;;;22.00;62.60;;;;;;5074176;28;20262;-55
2023/09/02 11:46:39;;;;;;;;;;;22.00;62.40;;;;;;5088174;28;20279;-56
2023/09/02 11:49:12;;;;;;;;;;;22.00;62.30;;;;;;5092909;28;20359;-56
2023/09/02 11:51:37;;;;;;;;;;;22.10;62.50;;;;;;5074722;28;19928;-55
2023/09/02 11:54:03;;;;;;;;;;;22.10;62.50;;;;;;5094291;28;19908;-56
2023/09/02 11:56:28;;;;;;;;;;;22.20;62.90;;;;;;5075342;28;19913;-56
2023/09/02 11:58:54;;;;;;;;;;;22.20;62.30;;;;;;5083115;28;19920;-55
2023/09/02 12:01:19;;;;;;;;;;;22.20;62.30;;;;;;5091805;28;19912;-56
2023/09/02 12:03:46;;;;;;;;;;;22.20;61.60;;;;;;5090373;28;19912;-56
2023/09/02 12:06:12;;;;;;;;;;;22.20;61.50;;;;;;5093996;28;19908;-56
2023/09/02 12:08:37;;;;;;;;;;;22.20;61.30;;;;;;5094023;28;19970;-56
2023/09/02 12:11:06;;;;;;;;;;;22.20;61.70;;;;;;5092852;28;19908;-56
2023/09/02 12:13:31;;;;;;;;;;;22.30;61.60;;;;;;5091025;28;19919;-56
2023/09/02 12:15:56;;;;;;;;;;;22.30;61.50;;;;;;5091743;28;19916;-56
2023/09/02 12:18:23;;;;;;;;;;;22.30;61.10;;;;;;5093798;28;19954;-56
2023/09/02 12:20:49;;;;;;;;;;;22.30;61.40;;;;;;5093766;28;19951;-56
2023/09/02 12:23:15;;;;;;;;;;;22.30;61.50;;;;;;5093673;28;19908;-56
2023/09/02 12:25:41;;;;;;;;;;;22.30;60.40;;;;;;5087937;28;19912;-56
2023/09/02 12:28:16;;;;;;;;;;;22.30;60.20;;;;;;5093674;28;19912;-56
2023/09/02 12:30:41;;;;;;;;;;;22.30;60.10;;;;;;5091547;28;19943;-56
2023/09/02 12:33:07;;;;;;;;;;;22.40;60.30;;;;;;5092080;28;20410;-56
2023/09/02 12:35:35;;;;;;;;;;;22.40;60.80;;;;;;5093462;28;19931;-55
2023/09/02 12:38:01;;;;;;;;;;;22.40;61.00;;;;;;5088237;28;20292;-56
2023/09/02 12:40:27;;;;;;;;;;;22.30;60.40;;;;;;5092257;28;19912;-56
2023/09/02 12:42:53;;;;;;;;;;;22.40;60.10;;;;;;5093415;28;19954;-56
2023/09/02 12:45:19;;;;;;;;;;;22.40;60.30;;;;;;5093489;28;19914;-56
2023/09/02 12:47:45;;;;;;;;;;;22.40;59.80;;;;;;5090041;28;20253;-56
2023/09/02 12:50:10;;;;;;;;;;;22.40;60.00;;;;;;5093123;28;19964;-56
2023/09/02 12:52:36;;;;;;;;;;;22.50;59.70;;;;;;5091966;28;20364;-55
2023/09/02 12:55:05;;;;;;;;;;;22.50;59.70;;;;;;5086690;28;19909;-56
2023/09/02 12:57:31;;;;;;;;;;;22.40;59.40;;;;;;5072565;28;20383;-56
2023/09/02 12:59:56;;;;;;;;;;;22.50;59.40;;;;;;5092112;28;19916;-54
2023/09/02 13:02:22;;;;;;;;;;;22.50;58.80;;;;;;5090831;28;19919;-56
2023/09/02 13:04:48;;;;;;;;;;;22.50;58.80;;;;;;5075094;28;19914;-55
2023/09/02 13:07:15;;;;;;;;;;;22.50;59.00;;;;;;5093095;28;19908;-55
2023/09/02 13:09:41;;;;;;;;;;;22.50;58.80;;;;;;5090316;28;19912;-56
2023/09/02 13:12:06;;;;;;;;;;;22.50;58.90;;;;;;5070806;28;19991;-55
2023/09/02 13:14:32;;;;;;;;;;;22.60;58.50;;;;;;5071589;28;19909;-56
2023/09/02 13:16:58;;;;;;;;;;;22.60;58.00;;;;;;5086786;28;20288;-55
2023/09/02 13:19:24;;;;;;;;;;;22.60;57.60;;;;;;5071585;28;19908;-56
2023/09/02 13:21:49;;;;;;;;;;;22.50;58.00;;;;;;5077024;28;19912;-56
2023/09/02 13:24:16;;;;;;;;;;;22.60;57.90;;;;;;5093184;28;19908;-56
2023/09/02 13:26:44;;;;;;;;;;;22.60;58.40;;;;;;5070834;28;19913;-55
2023/09/02 13:29:10;;;;;;;;;;;22.60;57.70;;;;;;5072931;28;19990;-55
2023/09/02 13:31:35;;;;;;;;;;;22.60;57.40;;;;;;5072951;28;19955;-55
2023/09/02 13:34:02;;;;;;;;;;;22.60;57.40;;;;;;5091670;28;19915;-55
2023/09/02 13:36:27;;;;;;;;;;;22.60;56.50;;;;;;5092981;28;19912;-56
2023/09/02 13:38:52;;;;;;;;;;;22.60;56.30;;;;;;5092784;28;19908;-55
2023/09/02 13:41:18;;;;;;;;;;;22.60;56.00;;;;;;5092722;28;19908;-56
2023/09/02 13:43:44;;;;;;;;;;;22.60;55.80;;;;;;5089479;28;19995;-56
2023/09/02 13:46:10;;;;;;;;;;;22.60;56.50;;;;;;5090078;28;20344;-56
2023/09/02 13:48:35;;;;;;;;;;;22.60;56.30;;;;;;5092695;28;19912;-56
2023/09/02 13:51:04;;;;;;;;;;;22.70;57.10;;;;;;5092485;28;19920;-55
2023/09/02 13:53:31;;;;;;;;;;;22.70;56.60;;;;;;5092726;28;19908;-56
2023/09/02 13:55:57;;;;;;;;;;;22.70;56.10;;;;;;5082408;28;20311;-56
2023/09/02 13:58:22;;;;;;;;;;;22.80;55.90;;;;;;5092675;28;20000;-56
2023/09/02 14:00:48;;;;;;;;;;;22.70;55.80;;;;;;5088683;28;20293;-56
2023/09/02 14:03:16;;;;;;;;;;;22.70;55.60;;;;;;5072332;28;19908;-56
2023/09/02 14:05:42;;;;;;;;;;;22.70;55.60;;;;;;5072540;28;19909;-56
2023/09/02 14:08:07;;;;;;;;;;;22.70;55.40;;;;;;5072341;28;19916;-56
2023/09/02 14:10:33;;;;;;;;;;;22.70;55.70;;;;;;5071139;28;19932;-56